createdAt,value
2019-05-18T00:01:23.906Z,1.10
2019-05-18T00:04:18.431Z,1.03
2019-05-18T00:07:05.792Z,1.03
2019-05-18T00:10:01.266Z,0.90
2019-05-18T00:12:50.300Z,1.10
2019-05-18T00:15:44.025Z,1.63
2019-05-18T00:18:31.002Z,0.97
2019-05-18T00:21:31.404Z,0.90
2019-05-18T00:24:24.976Z,0.90
2019-05-18T00:27:23.360Z,1.00
2019-05-18T00:30:10.545Z,1.30
2019-05-18T00:33:05.165Z,0.97
2019-05-18T00:35:52.485Z,0.90
2019-05-18T00:38:46.202Z,0.80
2019-05-18T00:41:33.392Z,1.00
2019-05-18T00:44:28.028Z,1.40
2019-05-18T00:47:15.412Z,1.20
2019-05-18T00:50:09.820Z,0.97
2019-05-18T00:52:56.775Z,1.00
2019-05-18T00:55:51.108Z,1.20
2019-05-18T00:58:38.540Z,0.80
2019-05-18T01:01:32.874Z,1.20
2019-05-18T01:04:20.008Z,1.20
2019-05-18T01:07:14.857Z,1.13
2019-05-18T01:10:02.072Z,1.43
2019-05-18T01:12:57.395Z,1.23
2019-05-18T01:15:44.615Z,1.17
2019-05-18T01:18:38.563Z,1.33
2019-05-18T01:21:26.085Z,2.10
2019-05-18T01:24:20.551Z,1.10
2019-05-18T01:27:14.437Z,0.93
2019-05-18T01:30:08.533Z,1.47
2019-05-18T01:32:55.677Z,1.37
2019-05-18T01:35:49.716Z,1.20
2019-05-18T01:38:37.287Z,1.03
2019-05-18T01:41:31.235Z,1.10
2019-05-18T01:44:24.901Z,1.27
2019-05-18T01:47:19.435Z,1.33
2019-05-18T01:50:06.605Z,1.40
2019-05-18T01:53:01.106Z,1.23
2019-05-18T01:55:50.224Z,1.43
2019-05-18T01:58:44.267Z,1.50
2019-05-18T02:01:31.867Z,1.23
2019-05-18T02:04:26.240Z,1.30
2019-05-18T02:07:13.647Z,1.40
2019-05-18T02:10:07.967Z,1.33
2019-05-18T02:12:55.322Z,1.30
2019-05-18T02:15:49.520Z,1.23
2019-05-18T02:18:36.766Z,1.23
2019-05-18T02:21:30.845Z,1.30
2019-05-18T02:24:17.991Z,1.47
2019-05-18T02:27:12.186Z,1.40
2019-05-18T02:30:07.119Z,1.30
2019-05-18T02:33:01.326Z,1.40
2019-05-18T02:35:48.536Z,1.27
2019-05-18T02:38:42.982Z,1.20
2019-05-18T02:41:30.518Z,1.27
2019-05-18T02:44:24.193Z,1.20
2019-05-18T02:47:11.712Z,1.00
2019-05-18T02:50:06.078Z,0.93
2019-05-18T02:52:53.093Z,1.20
2019-05-18T02:55:47.198Z,1.40
2019-05-18T02:58:34.646Z,1.33
2019-05-18T03:01:28.102Z,1.47
2019-05-18T03:04:15.123Z,1.20
2019-05-18T03:07:08.480Z,1.20
2019-05-18T03:09:56.023Z,1.10
2019-05-18T03:12:49.977Z,1.27
2019-05-18T03:15:44.163Z,1.00
2019-05-18T03:18:38.049Z,1.43
2019-05-18T03:21:25.267Z,1.20
2019-05-18T03:24:18.932Z,1.30
2019-05-18T03:27:06.291Z,1.57
2019-05-18T03:30:02.795Z,0.93
2019-05-18T03:32:58.095Z,1.40
2019-05-18T03:35:52.680Z,1.30
2019-05-18T03:38:40.401Z,1.17
2019-05-18T03:41:33.880Z,1.17
2019-05-18T03:44:22.951Z,1.33
2019-05-18T03:47:16.819Z,1.30
2019-05-18T03:50:05.896Z,1.40
2019-05-18T03:52:59.398Z,1.00
2019-05-18T03:55:46.296Z,1.10
2019-05-18T03:58:41.010Z,1.20
2019-05-18T04:01:28.818Z,1.00
2019-05-18T04:04:22.983Z,1.40
2019-05-18T04:07:10.434Z,1.40
2019-05-18T04:10:04.515Z,1.30
2019-05-18T04:12:51.838Z,1.00
2019-05-18T04:15:46.780Z,1.23
2019-05-18T04:18:33.930Z,1.13
2019-05-18T04:21:28.365Z,1.30
2019-05-18T04:24:15.958Z,1.30
2019-05-18T04:27:09.479Z,1.07
2019-05-18T04:30:03.276Z,1.13
2019-05-18T04:32:57.572Z,1.00
2019-05-18T04:35:51.690Z,1.40
2019-05-18T04:39:07.712Z,1.37
2019-05-18T04:41:53.798Z,1.20
2019-05-18T04:44:47.552Z,1.00
2019-05-18T04:47:34.770Z,0.97
2019-05-18T04:50:28.366Z,1.07
2019-05-18T04:53:15.613Z,1.00
2019-05-18T04:56:09.698Z,1.20
2019-05-18T04:58:57.051Z,1.30
2019-05-18T05:01:51.834Z,1.20
2019-05-18T05:04:39.022Z,1.13
2019-05-18T05:07:33.182Z,1.00
2019-05-18T05:10:20.736Z,1.40
2019-05-18T05:13:15.126Z,1.40
2019-05-18T05:16:02.724Z,1.20
2019-05-18T05:18:56.490Z,0.90
2019-05-18T05:21:43.905Z,1.30
2019-05-18T05:24:38.258Z,1.07
2019-05-18T05:27:28.140Z,1.40
2019-05-18T05:30:22.935Z,1.07
2019-05-18T05:33:10.094Z,1.23
2019-05-18T05:36:10.470Z,1.17
2019-05-18T05:39:06.304Z,1.13
2019-05-18T05:42:02.744Z,1.20
2019-05-18T05:44:51.527Z,0.90
2019-05-18T05:47:45.734Z,0.93
2019-05-18T05:50:36.356Z,1.00
2019-05-18T05:53:29.383Z,1.13
2019-05-18T05:56:16.338Z,1.10
2019-05-18T05:59:10.239Z,1.00
2019-05-18T06:01:58.919Z,1.00
2019-05-18T06:04:53.482Z,1.30
2019-05-18T06:07:40.752Z,1.07
2019-05-18T06:10:35.305Z,1.20
2019-05-18T06:13:22.294Z,0.80
2019-05-18T06:16:16.129Z,1.17
2019-05-18T06:19:03.450Z,0.97
2019-05-18T06:21:57.340Z,0.97
2019-05-18T06:24:44.353Z,1.30
2019-05-18T06:27:38.884Z,1.20
2019-05-18T06:30:29.296Z,1.00
2019-05-18T06:33:23.286Z,1.40
2019-05-18T06:36:10.844Z,1.10
2019-05-18T06:39:12.176Z,1.23
2019-05-18T06:42:06.259Z,1.00
2019-05-18T06:45:02.518Z,1.03
2019-05-18T06:47:49.362Z,1.40
2019-05-18T06:50:43.583Z,1.00
2019-05-18T06:53:30.927Z,1.17
2019-05-18T06:56:25.230Z,1.00
2019-05-18T06:59:12.300Z,1.60
2019-05-18T07:02:06.050Z,1.30
2019-05-18T07:04:53.568Z,1.43
2019-05-18T07:08:06.378Z,1.10
2019-05-18T07:10:53.281Z,1.47
2019-05-18T07:13:46.969Z,1.50
2019-05-18T07:16:34.240Z,1.47
2019-05-18T07:19:28.068Z,1.40
2019-05-18T07:22:15.486Z,1.40
2019-05-18T07:25:10.048Z,1.30
2019-05-18T07:27:58.780Z,0.90
2019-05-18T07:30:52.818Z,1.13
2019-05-18T07:33:39.931Z,1.20
2019-05-18T07:36:33.798Z,1.10
2019-05-18T07:39:24.264Z,1.43
2019-05-18T07:42:18.393Z,1.30
2019-05-18T07:45:17.998Z,1.30
2019-05-18T07:48:15.241Z,1.10
2019-05-18T07:51:02.853Z,1.50
2019-05-18T07:53:57.205Z,1.10
2019-05-18T07:56:44.372Z,1.20
2019-05-18T07:59:38.519Z,1.10
2019-05-18T08:02:26.027Z,1.30
2019-05-18T08:05:19.899Z,1.37
2019-05-18T08:08:14.762Z,1.40
2019-05-18T08:11:09.019Z,1.10
2019-05-18T08:13:59.410Z,1.40
2019-05-18T08:16:52.968Z,1.43
2019-05-18T08:19:40.236Z,1.50
2019-05-18T08:22:34.382Z,1.50
2019-05-18T08:25:21.623Z,1.27
2019-05-18T08:28:18.224Z,1.60
2019-05-18T08:31:07.923Z,1.40
2019-05-18T08:34:01.874Z,1.37
2019-05-18T08:36:49.261Z,1.50
2019-05-18T08:39:43.813Z,1.40
2019-05-18T08:42:31.289Z,1.40
2019-05-18T08:45:25.093Z,1.23
2019-05-18T08:48:18.969Z,1.60
2019-05-18T08:51:13.000Z,1.30
2019-05-18T08:54:00.383Z,1.60
2019-05-18T08:56:54.946Z,1.53
2019-05-18T08:59:43.595Z,1.67
2019-05-18T09:02:37.931Z,1.27
2019-05-18T09:05:28.121Z,1.07
2019-05-18T09:08:22.601Z,1.70
2019-05-18T09:11:09.779Z,1.57
2019-05-18T09:14:03.572Z,1.40
2019-05-18T09:16:52.618Z,1.00
2019-05-18T09:19:46.476Z,1.20
2019-05-18T09:22:34.080Z,1.50
2019-05-18T09:25:28.827Z,1.27
2019-05-18T09:28:15.981Z,1.50
2019-05-18T09:31:11.427Z,1.53
2019-05-18T09:33:58.711Z,1.30
2019-05-18T09:36:53.233Z,1.33
2019-05-18T09:39:40.215Z,1.30
2019-05-18T09:42:34.617Z,1.40
2019-05-18T09:45:21.684Z,1.27
2019-05-18T09:48:16.013Z,1.43
2019-05-18T09:51:10.446Z,1.53
2019-05-18T09:54:07.328Z,1.50
2019-05-18T09:56:54.943Z,1.50
2019-05-18T09:59:49.731Z,1.50
2019-05-18T10:02:38.524Z,1.50
2019-05-18T10:05:32.760Z,1.30
2019-05-18T10:08:20.040Z,1.67
2019-05-18T10:11:18.181Z,1.37
2019-05-18T10:14:05.586Z,1.60
2019-05-18T10:17:00.396Z,1.30
2019-05-18T10:19:47.613Z,1.40
2019-05-18T10:22:55.036Z,1.27
2019-05-18T10:25:32.774Z,1.23
2019-05-18T10:28:29.361Z,1.57
2019-05-18T10:31:16.523Z,1.13
2019-05-18T10:34:11.371Z,1.40
2019-05-18T10:37:00.307Z,1.40
2019-05-18T10:39:55.118Z,1.90
2019-05-18T10:42:45.876Z,1.90
2019-05-18T10:45:43.573Z,2.53
2019-05-18T10:48:28.536Z,2.30
2019-05-18T10:51:22.629Z,1.90
2019-05-18T10:54:27.571Z,2.60
2019-05-18T10:57:31.060Z,2.67
2019-05-18T11:00:25.708Z,2.20
2019-05-18T11:03:20.359Z,2.27
2019-05-18T11:06:07.462Z,2.13
2019-05-18T11:09:01.621Z,2.27
2019-05-18T11:11:49.093Z,3.70
2019-05-18T11:14:43.474Z,2.50
2019-05-18T11:17:30.696Z,5.93
2019-05-18T11:20:24.240Z,2.43
2019-05-18T11:23:11.178Z,2.40
2019-05-18T11:26:05.354Z,2.37
2019-05-18T11:28:52.475Z,2.10
2019-05-18T11:32:27.388Z,2.10
2019-05-18T11:35:33.709Z,2.13
2019-05-18T11:38:33.122Z,2.57
2019-05-18T11:41:29.817Z,2.27
2019-05-18T11:44:36.564Z,2.20
2019-05-18T11:47:29.310Z,2.13
2019-05-18T11:50:28.463Z,1.97
2019-05-18T11:53:30.158Z,2.03
2019-05-18T11:56:36.742Z,3.03
2019-05-18T11:59:38.816Z,2.50
2019-05-18T12:02:38.228Z,2.33
2019-05-18T12:05:36.826Z,1.97
2019-05-18T12:08:45.726Z,2.00
2019-05-18T12:11:36.846Z,2.13
2019-05-18T12:14:36.550Z,2.20
2019-05-18T12:17:26.656Z,1.97
2019-05-18T12:20:26.842Z,2.40
2019-05-18T12:23:15.712Z,2.20
2019-05-18T12:26:09.476Z,2.20
2019-05-18T12:28:57.948Z,2.17
2019-05-18T12:31:52.954Z,2.00
2019-05-18T12:34:45.963Z,2.20
2019-05-18T12:37:43.332Z,2.40
2019-05-18T12:40:31.774Z,1.90
2019-05-18T12:43:39.993Z,2.20
2019-05-18T12:46:27.885Z,2.37
2019-05-18T12:49:28.870Z,2.03
2019-05-18T12:52:23.628Z,2.13
2019-05-18T12:55:19.841Z,2.03
2019-05-18T12:58:21.894Z,2.30
2019-05-18T13:01:32.834Z,1.97
2019-05-18T13:04:20.791Z,1.80
2019-05-18T13:07:30.952Z,2.00
2019-05-18T13:10:19.896Z,1.90
2019-05-18T13:13:21.560Z,1.83
2019-05-18T13:16:10.310Z,2.13
2019-05-18T13:19:12.738Z,1.83
2019-05-18T13:22:08.969Z,2.17
2019-05-18T13:25:07.860Z,1.73
2019-05-18T13:28:00.678Z,2.20
2019-05-18T13:30:59.782Z,1.97
2019-05-18T13:33:50.017Z,2.37
2019-05-18T13:36:48.620Z,2.30
2019-05-18T13:39:35.608Z,2.00
2019-05-18T13:42:38.039Z,2.20
2019-05-18T13:45:27.680Z,2.00
2019-05-18T13:48:26.884Z,1.83
2019-05-18T13:51:20.477Z,1.70
2019-05-18T13:54:13.940Z,1.80
2019-05-18T13:57:18.844Z,1.90
2019-05-18T14:00:20.790Z,1.80
2019-05-18T14:03:24.766Z,1.93
2019-05-18T14:06:34.468Z,1.90
2019-05-18T14:09:26.912Z,1.90
2019-05-18T14:12:34.022Z,1.93
2019-05-18T14:15:23.324Z,1.80
2019-05-18T14:18:42.116Z,2.17
2019-05-18T14:21:25.266Z,2.10
2019-05-18T14:24:18.165Z,1.97
2019-05-18T14:27:09.212Z,1.90
2019-05-18T14:33:07.041Z,2.00
2019-05-18T14:36:27.946Z,1.93
2019-05-18T14:38:47.948Z,2.20
2019-05-18T14:41:44.233Z,1.87
2019-05-18T14:44:35.460Z,1.73
2019-05-18T14:47:35.833Z,2.00
2019-05-18T14:50:31.779Z,2.17
2019-05-18T14:53:43.172Z,2.00
2019-05-18T14:56:36.557Z,2.07
2019-05-18T14:59:39.581Z,1.90
2019-05-18T15:02:34.479Z,2.10
2019-05-18T15:05:41.517Z,2.20
2019-05-18T15:08:31.216Z,1.93
2019-05-18T15:11:34.134Z,2.00
2019-05-18T15:14:32.989Z,1.90
2019-05-18T15:17:28.701Z,1.87
2019-05-18T15:20:20.521Z,1.93
2019-05-18T15:23:28.175Z,1.83
2019-05-18T15:26:19.683Z,2.10
2019-05-18T15:29:22.972Z,1.60
2019-05-18T15:32:20.633Z,2.60
2019-05-18T15:35:25.109Z,2.50
2019-05-18T15:38:16.096Z,1.87
2019-05-18T15:41:12.846Z,2.33
2019-05-18T15:44:09.761Z,1.93
2019-05-18T15:47:05.505Z,2.00
2019-05-18T15:49:58.342Z,1.93
2019-05-18T15:52:55.596Z,2.10
2019-05-18T15:56:05.332Z,2.40
2019-05-18T15:59:02.676Z,1.93
2019-05-18T16:01:53.104Z,2.03
2019-05-18T16:04:46.896Z,1.93
2019-05-18T16:07:48.680Z,2.23
2019-05-18T16:10:45.933Z,2.00
2019-05-18T16:13:38.534Z,1.97
2019-05-18T16:16:31.651Z,1.90
2019-05-18T16:19:21.998Z,2.30
2019-05-18T16:22:23.836Z,1.73
2019-05-18T16:25:10.905Z,2.20
2019-05-18T16:28:10.860Z,2.00
2019-05-18T16:31:10.916Z,2.17
2019-05-18T16:37:12.944Z,2.40
2019-05-18T16:40:14.839Z,2.17
2019-05-18T16:43:03.232Z,2.67
2019-05-18T16:46:01.822Z,2.20
2019-05-18T16:48:48.407Z,2.40
2019-05-18T16:51:48.001Z,2.30
2019-05-18T16:54:36.347Z,2.23
2019-05-18T16:57:36.603Z,2.30
2019-05-18T17:00:38.912Z,2.13
2019-05-18T17:03:37.415Z,2.20
2019-05-18T17:06:29.237Z,2.03
2019-05-18T17:09:39.674Z,2.30
2019-05-18T17:12:45.739Z,2.30
2019-05-18T17:15:41.043Z,2.23
2019-05-18T17:18:32.369Z,2.17
2019-05-18T17:21:43.093Z,2.40
2019-05-18T17:24:42.747Z,2.37
2019-05-18T17:27:41.884Z,2.10
2019-05-18T17:30:42.642Z,2.13
2019-05-18T17:33:39.261Z,2.40
2019-05-18T17:36:39.361Z,2.57
2019-05-18T17:39:35.841Z,2.40
2019-05-18T17:42:26.654Z,2.30
2019-05-18T17:45:35.032Z,2.10
2019-05-18T17:48:21.700Z,2.03
2019-05-18T17:51:22.891Z,2.23
2019-05-18T17:54:16.243Z,2.10
2019-05-18T17:57:17.816Z,2.30
2019-05-18T18:00:17.976Z,2.40
2019-05-18T18:03:15.015Z,2.60
2019-05-18T18:06:05.129Z,2.23
2019-05-18T18:09:03.709Z,2.50
2019-05-18T18:12:08.217Z,2.13
2019-05-18T18:15:05.161Z,2.60
2019-05-18T18:17:57.621Z,2.50
2019-05-18T18:20:57.539Z,2.50
2019-05-18T18:23:54.814Z,2.10
2019-05-18T18:26:48.250Z,2.53
2019-05-18T18:29:54.046Z,2.60
2019-05-18T18:32:50.344Z,2.53
2019-05-18T18:35:51.781Z,2.57
2019-05-18T18:38:59.598Z,2.60
2019-05-18T18:41:58.755Z,2.50
2019-05-18T18:45:05.544Z,2.40
2019-05-18T18:47:55.551Z,2.57
2019-05-18T18:50:58.069Z,2.90
2019-05-18T18:57:04.463Z,3.10
2019-05-18T18:59:56.843Z,2.83
2019-05-18T19:02:54.808Z,2.50
2019-05-18T19:05:50.452Z,2.60
2019-05-18T19:08:53.586Z,2.40
2019-05-18T19:11:45.329Z,2.50
2019-05-18T19:14:53.704Z,2.50
2019-05-18T19:17:53.489Z,2.37
2019-05-18T19:20:45.759Z,2.73
2019-05-18T19:23:41.168Z,2.97
2019-05-18T19:26:37.917Z,3.07
2019-05-18T19:29:26.755Z,2.50
2019-05-18T19:32:24.872Z,2.77
2019-05-18T19:35:20.195Z,2.60
2019-05-18T19:38:24.749Z,2.53
2019-05-18T19:41:18.585Z,2.40
2019-05-18T19:44:24.097Z,2.43
2019-05-18T19:47:14.012Z,3.50
2019-05-18T19:50:13.338Z,2.40
2019-05-18T19:53:04.587Z,2.67
2019-05-18T19:56:02.481Z,2.33
2019-05-18T19:58:59.246Z,2.80
2019-05-18T20:01:53.374Z,2.50
2019-05-18T20:05:06.555Z,2.67
2019-05-18T20:07:48.146Z,2.47
2019-05-18T20:10:36.530Z,2.70
2019-05-18T20:13:36.289Z,2.40
2019-05-18T20:16:38.756Z,2.50
2019-05-18T20:19:38.687Z,2.33
2019-05-18T20:22:26.691Z,2.80
2019-05-18T20:25:27.600Z,2.60
2019-05-18T20:28:23.861Z,2.97
2019-05-18T20:31:21.551Z,2.70
2019-05-18T20:34:40.256Z,2.43
2019-05-18T20:37:09.409Z,2.60
2019-05-18T20:40:10.764Z,2.60
2019-05-18T20:43:07.964Z,2.50
2019-05-18T20:45:56.969Z,2.40
2019-05-18T20:49:22.054Z,2.40
2019-05-18T20:55:29.802Z,2.43
2019-05-18T20:58:20.242Z,2.50
2019-05-18T21:01:19.940Z,2.80
2019-05-18T21:04:13.269Z,2.50
2019-05-18T21:07:09.480Z,2.67
2019-05-18T21:10:07.954Z,2.57
2019-05-18T21:13:01.680Z,2.63
2019-05-18T21:16:54.701Z,2.63
2019-05-18T21:19:07.573Z,2.60
2019-05-18T21:22:09.484Z,2.80
2019-05-18T21:25:09.827Z,2.47
2019-05-18T21:27:57.506Z,2.40
2019-05-18T21:30:57.224Z,2.70
2019-05-18T21:33:43.828Z,2.97
2019-05-18T21:36:54.734Z,2.60
2019-05-18T21:39:53.719Z,2.67
2019-05-18T21:42:50.373Z,2.50
2019-05-18T21:45:50.628Z,2.60
2019-05-18T21:48:48.144Z,2.60
2019-05-18T21:51:39.292Z,2.70
2019-05-18T21:54:49.618Z,2.50
2019-05-18T21:57:49.136Z,2.93
2019-05-18T22:00:55.285Z,2.87
2019-05-18T22:03:49.215Z,2.90
2019-05-18T22:06:42.690Z,2.77
2019-05-18T22:09:36.935Z,2.50
2019-05-18T22:12:32.164Z,3.03
2019-05-18T22:15:29.403Z,2.60
2019-05-18T22:21:45.560Z,3.10
2019-05-18T22:24:42.281Z,2.73
2019-05-18T22:27:40.200Z,2.50
2019-05-18T22:30:44.404Z,2.60
2019-05-18T22:33:33.567Z,2.43
2019-05-18T22:36:34.119Z,2.60
2019-05-18T22:39:30.599Z,3.20
2019-05-18T22:42:29.244Z,2.67
2019-05-18T22:45:21.294Z,2.90
2019-05-18T22:48:21.936Z,3.10
2019-05-18T22:51:22.589Z,2.90
2019-05-18T22:54:20.853Z,2.70
2019-05-18T22:57:09.172Z,2.73
2019-05-18T23:00:05.477Z,2.90
2019-05-18T23:02:54.165Z,2.90
2019-05-18T23:05:50.363Z,3.10
2019-05-18T23:08:48.161Z,2.97
2019-05-18T23:11:52.256Z,2.70
2019-05-18T23:14:46.922Z,3.10
2019-05-18T23:17:45.082Z,3.03
2019-05-18T23:20:34.999Z,2.93
2019-05-18T23:23:41.781Z,4.83
2019-05-18T23:26:32.950Z,2.90
2019-05-18T23:29:37.581Z,3.03
2019-05-18T23:32:38.873Z,3.40
2019-05-18T23:35:42.743Z,2.87
2019-05-18T23:38:37.233Z,3.23
2019-05-18T23:41:36.802Z,3.13
2019-05-18T23:44:33.357Z,3.27
2019-05-18T23:47:31.162Z,2.90
2019-05-18T23:50:31.720Z,3.40
2019-05-18T23:53:31.611Z,2.80
2019-05-18T23:56:22.924Z,3.03
2019-05-18T23:59:17.860Z,3.03
